logo
Search for airport 
image banner adimage banner adimage banner ad
image banner ad

VT15 - Savage Island

Located in Grand Isle, United States

ICAO - VT15, IATA -

Data provided by Airmate  

General information

Coordinates: N44°42'14" W73°14'45"
Elevation is 125 feet MSL.
Magnetic variation is -16° East
View others Airports in Vermont

Operational data

Special qualification required
Current time UTC:
Current local time:
Weather at : KPBG - Plattsburgh Intl ( 19 km )
METAR: KPBG 131553Z AUTO 10SM FEW050 OVC070 09/01 A2940 RMK AO2 SLP956 T00940006
TAF: KPBG 131120Z 1312/1412 19008KT P6SM VCSH BKN060 OVC080 FM131600 21009KT P6SM VCSH BKN025 FM131800 25010KT P6SM -SHRA OVC025 FM132200 29013G20KT P6SM -SHRA OVC035 FM140100 30015G23KT P6SM VCSH OVC025 FM140400 29012G19KT P6SM BKN080
View NOTAMs / SUP AIP / TFR affecting this airport [VIEW]
Communications frequencies: [VIEW]

Runways:

RWY identifierQFULength (ft)Width (ft)SurfaceLDA (ft)
02250090GRASS
20250090GRASS

Airport contact information

Address: Grand Isle United States

Satellite view of VT15